Time;durP1;ratioP1;P1;durP2;ratioP2;P2;SDS_P1;SDS_P2;PMS_P1;PMS_P2;Temp;Humidity;BMP_temperature;BMP_pressure;BME280_temperature;BME280_humidity;BME280_pressure;Samples;Min_cycle;Max_cycle;Signal;HPM_P1;HPM_P2
2022/04/29 00:02:05;;;;;;;6.95;3.97;;;281.80;2278.40;;;;;;5050186;28;20108;-53
2022/04/29 00:04:31;;;;;;;6.93;3.70;;;281.70;2278.40;;;;;;5050026;28;20470;-53
2022/04/29 00:06:57;;;;;;;6.45;3.92;;;281.70;2278.40;;;;;;5049611;28;20049;-52
2022/04/29 00:09:23;;;;;;;8.25;4.32;;;281.80;2278.40;;;;;;5050116;28;20504;-53
2022/04/29 00:11:50;;;;;;;5.45;3.63;;;281.70;2278.40;;;;;;5050314;28;20387;-52
2022/04/29 00:14:15;;;;;;;7.85;4.10;;;281.60;2278.40;;;;;;5049891;28;20052;-53
2022/04/29 00:16:41;;;;;;;6.22;4.38;;;281.60;2278.40;;;;;;5050171;28;20032;-54
2022/04/29 00:19:07;;;;;;;6.53;3.92;;;281.70;2278.40;;;;;;5049865;28;20119;-53
2022/04/29 00:21:33;;;;;;;5.72;3.00;;;281.60;2278.40;;;;;;5050402;28;20028;-54
2022/04/29 00:23:58;;;;;;;7.70;4.13;;;281.60;2278.40;;;;;;5049877;28;20112;-53
2022/04/29 00:26:24;;;;;;;7.13;4.10;;;256.90;2252.80;;;;;;5049913;28;20037;-53
2022/04/29 00:28:50;;;;;;;7.70;4.00;;;256.80;2252.80;;;;;;5049945;28;20526;-53
2022/04/29 00:31:15;;;;;;;5.40;3.75;;;256.90;2252.80;;;;;;5049624;28;20029;-54
2022/04/29 00:33:41;;;;;;;5.30;3.22;;;256.90;2252.80;;;;;;5049924;28;20057;-54
2022/04/29 00:36:07;;;;;;;7.75;4.03;;;256.90;2252.80;;;;;;5049674;28;20111;-52
2022/04/29 00:38:33;;;;;;;9.00;4.25;;;256.90;2252.80;;;;;;5049644;28;20025;-54
2022/04/29 00:40:59;;;;;;;7.28;3.97;;;256.90;2252.80;;;;;;5049905;28;20447;-53
2022/04/29 00:43:25;;;;;;;7.45;4.70;;;256.90;2252.80;;;;;;5049587;28;20079;-52
2022/04/29 00:45:51;;;;;;;8.20;4.50;;;256.90;2252.80;;;;;;5049914;28;20036;-53
2022/04/29 00:48:18;;;;;;;7.72;4.10;;;256.90;2252.80;;;;;;5049604;28;20017;-52
2022/04/29 00:50:44;;;;;;;7.07;3.88;;;256.90;2252.80;;;;;;5049624;28;20025;-53
2022/04/29 00:53:12;;;;;;;6.57;3.80;;;256.80;2252.80;;;;;;5049818;28;20025;-53
2022/04/29 00:55:44;;;;;;;8.80;3.88;;;256.10;2252.80;;;;;;5031795;28;20025;-54
2022/04/29 00:58:21;;;;;;;8.20;4.30;;;256.80;2252.80;;;;;;5049779;28;20033;-54
2022/04/29 01:00:47;;;;;;;6.63;3.83;;;256.80;2252.80;;;;;;5049536;28;20056;-52
2022/04/29 01:03:14;;;;;;;6.65;4.20;;;256.80;2252.80;;;;;;5049769;28;20493;-55
2022/04/29 01:05:41;;;;;;;10.38;5.22;;;256.60;2252.80;;;;;;5049176;28;20107;-55
2022/04/29 01:08:08;;;;;;;9.35;5.47;;;256.80;2252.80;;;;;;5049239;28;20045;-53
2022/04/29 01:10:34;;;;;;;8.27;4.10;;;256.60;2252.80;;;;;;5049249;28;20033;-52
2022/04/29 01:13:02;;;;;;;8.55;4.03;;;256.60;2252.80;;;;;;5049536;28;20052;-54
2022/04/29 01:15:29;;;;;;;6.13;3.50;;;256.60;2252.80;;;;;;5049301;28;20027;-53
2022/04/29 01:17:59;;;;;;;7.32;4.10;;;256.60;2252.80;;;;;;5051856;28;20081;-53
2022/04/29 01:20:27;;;;;;;6.15;3.58;;;256.60;2252.80;;;;;;5053139;28;20048;-53
2022/04/29 01:22:53;;;;;;;7.97;4.15;;;256.60;2252.80;;;;;;5035014;28;20021;-54
2022/04/29 01:25:19;;;;;;;6.28;3.97;;;256.60;2252.80;;;;;;5053146;28;20037;-53
2022/04/29 01:27:45;;;;;;;7.18;4.10;;;256.60;2252.80;;;;;;5052887;28;20025;-53
2022/04/29 01:30:13;;;;;;;7.07;3.33;;;256.60;2252.80;;;;;;5053109;28;20029;-54
2022/04/29 01:32:40;;;;;;;8.43;3.95;;;256.50;2252.80;;;;;;5053181;28;20025;-53
2022/04/29 01:35:07;;;;;;;7.90;4.13;;;256.50;2252.80;;;;;;5035055;28;20029;-53
2022/04/29 01:37:34;;;;;;;6.40;4.10;;;256.50;2252.80;;;;;;5052520;28;20057;-53
2022/04/29 01:40:00;;;;;;;11.05;4.47;;;256.50;2252.80;;;;;;5052720;28;20482;-54
2022/04/29 01:42:26;;;;;;;7.55;4.30;;;256.50;2252.80;;;;;;5052381;28;20084;-54
2022/04/29 01:44:53;;;;;;;7.90;3.67;;;256.50;2252.80;;;;;;5052653;28;20049;-53
2022/04/29 01:47:18;;;;;;;7.63;3.63;;;256.50;2252.80;;;;;;5052866;28;20053;-54
2022/04/29 01:49:44;;;;;;;5.80;4.07;;;256.40;2252.80;;;;;;5052543;28;20427;-54
2022/04/29 01:52:10;;;;;;;6.95;3.72;;;256.40;2252.80;;;;;;5052497;28;20025;-54
2022/04/29 01:54:36;;;;;;;5.63;3.63;;;256.50;2252.80;;;;;;5052513;28;20460;-53
2022/04/29 01:57:02;;;;;;;6.70;3.78;;;256.30;2252.80;;;;;;5052600;28;20029;-53
2022/04/29 01:59:30;;;;;;;5.53;3.13;;;256.20;2252.80;;;;;;5052379;28;20029;-53
2022/04/29 02:01:56;;;;;;;6.03;3.20;;;256.40;2252.80;;;;;;5052355;28;20752;-53
2022/04/29 02:04:22;;;;;;;8.48;3.85;;;256.40;2252.80;;;;;;5052525;28;20486;-53
2022/04/29 02:06:47;;;;;;;7.45;3.50;;;256.50;2252.80;;;;;;5051759;28;20088;-52
2022/04/29 02:09:14;;;;;;;6.13;3.42;;;256.40;2252.80;;;;;;5052241;28;20124;-53
2022/04/29 02:11:40;;;;;;;5.63;3.53;;;256.30;2252.80;;;;;;5052323;28;20118;-53
2022/04/29 02:14:06;;;;;;;6.25;3.60;;;256.20;1868.80;;;;;;5052284;28;20029;-54
2022/04/29 02:16:31;;;;;;;5.60;3.17;;;256.30;2252.80;;;;;;5052156;28;20463;-53
2022/04/29 02:18:57;;;;;;;5.80;3.17;;;256.20;2252.80;;;;;;5051940;28;20116;-53
2022/04/29 02:21:23;;;;;;;6.10;3.10;;;256.10;2252.80;;;;;;5052140;28;20028;-54
2022/04/29 02:23:49;;;;;;;8.07;3.10;;;256.00;2099.20;;;;;;5034280;28;20061;-52
2022/04/29 02:26:14;;;;;;;5.80;3.28;;;256.20;2252.80;;;;;;5051847;28;20080;-54
2022/04/29 02:28:40;;;;;;;6.63;3.40;;;256.20;2252.80;;;;;;5051884;28;20028;-54
2022/04/29 02:31:06;;;;;;;6.90;2.95;;;256.00;2252.80;;;;;;5051830;28;20029;-53
2022/04/29 02:33:32;;;;;;;4.53;3.10;;;231.30;2252.80;;;;;;5051910;28;20076;-53
2022/04/29 02:35:59;;;;;;;5.72;3.97;;;231.30;1920.00;;;;;;5051478;28;20155;-53
2022/04/29 02:38:24;;;;;;;3.83;2.60;;;231.20;2252.80;;;;;;5051532;28;20028;-52
2022/04/29 02:40:50;;;;;;;4.43;3.28;;;231.30;2252.80;;;;;;5051495;28;20082;-53
2022/04/29 02:43:19;;;;;;;3.95;2.50;;;231.30;1996.80;;;;;;5051300;28;20044;-52
2022/04/29 02:45:46;;;;;;;5.88;2.80;;;231.20;2201.60;;;;;;5051465;28;20107;-51
2022/04/29 02:48:14;;;;;;;5.88;2.88;;;231.20;2252.80;;;;;;5051686;28;20029;-53
2022/04/29 02:50:40;;;;;;;5.15;2.97;;;231.20;2252.80;;;;;;5051660;28;20024;-53
2022/04/29 02:53:06;;;;;;;6.45;3.05;;;231.20;2252.80;;;;;;5033520;28;20083;-53
2022/04/29 02:55:32;;;;;;;5.22;2.88;;;231.30;1920.00;;;;;;5051624;28;20021;-53
2022/04/29 02:57:57;;;;;;;5.38;3.05;;;256.00;2252.80;;;;;;5051296;28;20025;-53
2022/04/29 03:00:23;;;;;;;5.53;2.83;;;231.20;2252.80;;;;;;5051326;28;20541;-54
2022/04/29 03:02:49;;;;;;;6.28;3.80;;;231.30;2252.80;;;;;;5051283;28;20054;-52
2022/04/29 03:05:14;;;;;;;5.45;2.38;;;231.20;2252.80;;;;;;5050961;28;20392;-52
2022/04/29 03:07:40;;;;;;;5.55;2.95;;;231.10;2252.80;;;;;;5050871;28;20391;-54
2022/04/29 03:10:06;;;;;;;8.57;2.78;;;231.00;2252.80;;;;;;5051071;28;20083;-53
2022/04/29 03:12:32;;;;;;;6.65;2.88;;;230.90;2048.00;;;;;;5051041;28;20045;-53
2022/04/29 03:15:15;;;;;;;6.70;3.58;;;230.80;2073.60;;;;;;5050853;28;20080;-53
2022/04/29 03:20:26;;;;;;;5.20;3.15;;;231.00;2252.80;;;;;;5050937;28;20491;-53
2022/04/29 03:22:52;;;;;;;8.38;4.15;;;231.00;2252.80;;;;;;5051107;28;20037;-51
2022/04/29 03:25:18;;;;;;;4.72;3.17;;;231.00;2252.80;;;;;;5050459;28;20402;-53
2022/04/29 03:27:44;;;;;;;7.55;4.22;;;231.00;1894.40;;;;;;5050492;28;20033;-54
2022/04/29 03:30:10;;;;;;;5.28;3.47;;;231.00;2022.40;;;;;;5050966;28;20044;-54
2022/04/29 03:32:36;;;;;;;4.82;2.80;;;231.00;2252.80;;;;;;5050644;28;20037;-54
2022/04/29 03:35:02;;;;;;;4.95;3.42;;;231.10;2252.80;;;;;;5050710;28;20025;-53
2022/04/29 03:37:28;;;;;;;5.32;3.45;;;231.10;2252.80;;;;;;5050148;28;20040;-53
2022/04/29 03:39:53;;;;;;;5.75;3.42;;;231.20;2252.80;;;;;;5049697;28;20025;-53
2022/04/29 03:42:20;;;;;;;5.13;3.22;;;231.20;2252.80;;;;;;5050596;28;20032;-52
2022/04/29 03:44:46;;;;;;;4.72;2.75;;;231.10;2252.80;;;;;;5050433;28;20029;-53
2022/04/29 03:47:12;;;;;;;5.22;2.83;;;231.20;2252.80;;;;;;5050693;28;20120;-53
2022/04/29 03:49:38;;;;;;;6.03;3.83;;;231.30;1996.80;;;;;;5050411;28;20021;-52
2022/04/29 03:52:05;;;;;;;4.93;2.78;;;231.30;1920.00;;;;;;5032594;28;20029;-54
2022/04/29 03:54:31;;;;;;;5.38;3.20;;;231.30;2252.80;;;;;;5050281;28;20036;-53
2022/04/29 03:56:57;;;;;;;5.93;3.13;;;231.30;2252.80;;;;;;5050293;28;20032;-54
2022/04/29 03:59:23;;;;;;;5.60;3.42;;;231.20;2252.80;;;;;;5050345;28;20392;-53
2022/04/29 04:01:49;;;;;;;6.32;3.38;;;231.20;2252.80;;;;;;5050211;28;20032;-52
2022/04/29 04:04:15;;;;;;;4.57;2.25;;;231.20;2252.80;;;;;;5050031;28;20032;-52
2022/04/29 04:06:50;;;;;;;4.28;2.42;;;231.20;2252.80;;;;;;5049850;28;20041;-52
2022/04/29 04:09:22;;;;;;;4.80;2.70;;;231.20;2252.80;;;;;;5050347;28;20033;-52
2022/04/29 04:11:48;;;;;;;6.55;3.75;;;231.30;2252.80;;;;;;5049849;28;20029;-53
2022/04/29 04:14:16;;;;;;;5.15;2.92;;;231.30;2252.80;;;;;;5049856;28;20028;-52
2022/04/29 04:16:42;;;;;;;5.85;3.42;;;256.00;2252.80;;;;;;5049977;28;20032;-52
2022/04/29 04:19:08;;;;;;;7.18;3.30;;;256.00;2252.80;;;;;;5049815;28;20040;-52
2022/04/29 04:21:34;;;;;;;4.97;3.88;;;256.20;2252.80;;;;;;5049787;28;20091;-53
2022/04/29 04:24:00;;;;;;;5.63;3.13;;;256.30;2252.80;;;;;;5049985;28;20028;-54
2022/04/29 04:26:26;;;;;;;4.85;3.10;;;256.40;2252.80;;;;;;5049702;28;20084;-53
2022/04/29 04:28:51;;;;;;;6.90;3.33;;;256.50;2252.80;;;;;;5049947;28;20021;-52
2022/04/29 04:31:21;;;;;;;6.00;3.40;;;256.40;2252.80;;;;;;5049699;28;20067;-53
2022/04/29 04:33:47;;;;;;;6.68;3.45;;;256.50;2252.80;;;;;;5049538;28;20029;-53
2022/04/29 04:36:13;;;;;;;5.50;3.15;;;256.50;2252.80;;;;;;5049665;28;20041;-53
2022/04/29 04:38:39;;;;;;;5.43;2.97;;;256.80;2252.80;;;;;;5032351;28;20029;-53
2022/04/29 04:41:07;;;;;;;6.82;3.50;;;256.90;2252.80;;;;;;5049675;28;20360;-54
2022/04/29 04:43:32;;;;;;;4.55;2.83;;;256.90;2252.80;;;;;;5049802;28;20116;-52
2022/04/29 04:45:58;;;;;;;3.78;2.90;;;281.60;2278.40;;;;;;5049632;28;20175;-52
2022/04/29 04:48:24;;;;;;;5.65;3.67;;;281.70;2278.40;;;;;;5049586;28;20467;-53
2022/04/29 04:50:49;;;;;;;6.13;4.05;;;281.70;2278.40;;;;;;5049640;28;20025;-54
2022/04/29 04:53:15;;;;;;;4.97;3.20;;;281.80;2278.40;;;;;;5034357;28;20035;-53
2022/04/29 04:55:41;;;;;;;6.40;3.38;;;281.90;2278.40;;;;;;5053657;28;20021;-52
2022/04/29 04:58:08;;;;;;;6.78;3.08;;;282.00;2278.40;;;;;;5053537;28;20403;-52
2022/04/29 05:00:35;;;;;;;5.63;4.10;;;282.00;2278.40;;;;;;5053376;28;20025;-53
2022/04/29 05:03:01;;;;;;;6.43;3.75;;;282.00;2278.40;;;;;;5053684;28;20400;-53
2022/04/29 05:05:27;;;;;;;5.63;3.78;;;282.30;2278.40;;;;;;5053115;28;20032;-53
2022/04/29 05:07:52;;;;;;;5.45;3.58;;;282.50;2278.40;;;;;;5053303;28;20551;-52
2022/04/29 05:10:18;;;;;;;5.75;3.83;;;307.30;2304.00;;;;;;5053127;28;20028;-52
2022/04/29 05:12:47;;;;;;;7.60;4.10;;;307.40;2304.00;;;;;;5053143;28;20025;-52
2022/04/29 05:15:14;;;;;;;5.13;3.80;;;307.50;2304.00;;;;;;5053466;28;20391;-53
2022/04/29 05:17:40;;;;;;;7.53;3.80;;;307.60;2304.00;;;;;;5053595;28;20024;-52
2022/04/29 05:20:07;;;;;;;7.25;4.18;;;307.80;2304.00;;;;;;5053111;28;20087;-53
2022/04/29 05:22:33;;;;;;;7.05;3.85;;;307.80;2304.00;;;;;;5052976;28;20410;-54
2022/04/29 05:24:59;;;;;;;5.18;3.38;;;308.00;2304.00;;;;;;5053068;28;20033;-54
2022/04/29 05:27:25;;;;;;;5.75;4.03;;;307.90;2304.00;;;;;;5052622;28;20059;-53
2022/04/29 05:29:50;;;;;;;11.18;4.65;;;308.10;2304.00;;;;;;5053145;28;20017;-52
2022/04/29 05:32:16;;;;;;;4.75;3.40;;;332.80;2329.60;;;;;;5052584;28;20036;-63
2022/04/29 05:34:43;;;;;;;5.63;3.22;;;333.00;2329.60;;;;;;5052916;28;20025;-56
2022/04/29 05:37:09;;;;;;;6.93;4.05;;;333.00;2329.60;;;;;;5046918;28;20029;-58
2022/04/29 05:42:21;;;;;;;6.95;4.05;;;333.40;2329.60;;;;;;5049660;28;20025;-62
2022/04/29 05:44:47;;;;;;;6.70;3.75;;;333.50;2329.60;;;;;;5038750;28;20387;-56
2022/04/29 05:47:13;;;;;;;7.78;3.58;;;333.40;2329.60;;;;;;5038182;28;20041;-58
2022/04/29 05:49:39;;;;;;;8.43;4.47;;;333.40;2329.60;;;;;;5037718;28;20028;-65
2022/04/29 05:52:06;;;;;;;6.47;4.13;;;333.60;2329.60;;;;;;5041208;28;20466;-56
2022/04/29 05:54:34;;;;;;;6.80;4.43;;;333.50;2329.60;;;;;;5041556;28;20022;-58
2022/04/29 05:57:01;;;;;;;6.25;4.43;;;333.60;2329.60;;;;;;5041526;28;20025;-65
2022/04/29 05:59:27;;;;;;;8.02;4.68;;;333.70;2329.60;;;;;;5042676;28;20025;-63
2022/04/29 06:01:54;;;;;;;7.55;4.47;;;358.50;2329.60;;;;;;5040910;28;20107;-63
2022/04/29 06:04:20;;;;;;;7.38;4.10;;;358.70;2329.60;;;;;;5040310;28;20076;-60
2022/04/29 06:06:46;;;;;;;7.47;4.88;;;358.80;2329.60;;;;;;5031836;28;20298;-62
2022/04/29 06:09:12;;;;;;;7.25;3.70;;;359.00;2329.60;;;;;;5032444;28;20028;-60
2022/04/29 06:11:37;;;;;;;8.13;4.63;;;384.30;2329.60;;;;;;5032212;28;20104;-60
2022/04/29 06:14:03;;;;;;;7.10;3.67;;;384.90;2329.60;;;;;;5032387;28;20072;-63
2022/04/29 06:16:29;;;;;;;6.93;4.18;;;409.90;2355.20;;;;;;5034954;28;20383;-56
2022/04/29 06:18:55;;;;;;;7.07;3.95;;;410.30;2355.20;;;;;;5040224;28;20084;-58
2022/04/29 06:21:20;;;;;;;5.65;3.88;;;410.50;2355.20;;;;;;5047163;28;20025;-56
2022/04/29 06:23:47;;;;;;;7.10;4.95;;;435.40;2355.20;;;;;;5051846;28;20025;-59
2022/04/29 06:26:13;;;;;;;5.70;4.38;;;435.90;2355.20;;;;;;5052016;28;20037;-56
2022/04/29 06:28:39;;;;;;;7.60;5.07;;;435.90;2355.20;;;;;;5052087;28;20152;-59
2022/04/29 06:31:05;;;;;;;8.40;5.43;;;460.90;2380.80;;;;;;5051716;28;20049;-60
2022/04/29 06:33:31;;;;;;;7.05;4.43;;;461.40;2380.80;;;;;;5051821;28;20033;-59
2022/04/29 06:35:57;;;;;;;7.20;4.25;;;486.40;2380.80;;;;;;5051349;28;20037;-57
2022/04/29 06:38:24;;;;;;;8.27;5.32;;;461.70;2380.80;;;;;;5051552;28;20095;-57
2022/04/29 06:40:50;;;;;;;6.03;4.18;;;461.20;2380.80;;;;;;5051571;28;20104;-56
2022/04/29 06:43:16;;;;;;;6.88;4.30;;;461.10;2380.80;;;;;;5051371;28;20105;-56
2022/04/29 06:45:43;;;;;;;6.93;4.15;;;461.60;2380.80;;;;;;5051452;28;20029;-56
2022/04/29 06:48:09;;;;;;;6.13;4.63;;;486.40;2380.80;;;;;;5051610;28;20029;-57
2022/04/29 06:50:34;;;;;;;6.63;4.43;;;537.60;2252.80;;;;;;5051093;28;20021;-60
2022/04/29 06:53:00;;;;;;;7.05;5.60;;;538.10;2099.20;;;;;;5051580;28;20112;-57
2022/04/29 06:55:27;;;;;;;6.57;5.68;;;615.30;1766.40;;;;;;5051058;28;20025;-57
2022/04/29 06:57:52;;;;;;;8.18;6.40;;;691.70;1536.00;;;;;;5051161;28;20029;-64
2022/04/29 07:00:19;;;;;;;6.75;5.55;;;743.30;1408.00;;;;;;5051045;28;20025;-57
2022/04/29 07:02:45;;;;;;;8.57;6.95;;;743.00;1356.80;;;;;;5050987;28;20388;-65
2022/04/29 07:05:11;;;;;;;8.90;7.45;;;742.80;1382.40;;;;;;5051024;28;20021;-56
2022/04/29 07:07:37;;;;;;;8.40;6.55;;;742.60;1408.00;;;;;;5050743;28;20053;-65
2022/04/29 07:10:04;;;;;;;7.75;6.35;;;819.20;1254.40;;;;;;5047553;28;20456;-61
2022/04/29 07:12:34;;;;;;;7.15;6.45;;;844.80;1177.60;;;;;;5031144;28;20086;-58
2022/04/29 07:15:00;;;;;;;5.75;5.18;;;870.50;1126.40;;;;;;5032900;28;20029;-63
2022/04/29 07:17:25;;;;;;;7.53;6.90;;;871.10;1049.60;;;;;;5040422;28;20029;-57
2022/04/29 07:19:53;;;;;;;5.30;4.18;;;844.90;1177.60;;;;;;5043385;28;20029;-60
2022/04/29 07:22:19;;;;;;;6.55;5.95;;;819.50;1152.00;;;;;;5050788;28;20061;-61
2022/04/29 07:24:45;;;;;;;6.07;5.57;;;845.20;1152.00;;;;;;5050771;28;20048;-57
2022/04/29 07:27:13;;;;;;;12.38;7.22;;;896.80;1024.00;;;;;;5050696;28;20033;-64
2022/04/29 07:29:38;;;;;;;17.05;12.63;;;896.80;998.40;;;;;;5050731;28;20025;-68
2022/04/29 07:32:04;;;;;;;5.20;4.30;;;870.60;1075.20;;;;;;5050516;28;20031;-60
2022/04/29 07:42:51;;;;;;;4.45;3.17;;;716.80;1305.60;;;;;;5050718;28;20032;-64
2022/04/29 07:45:17;;;;;;;3.85;3.00;;;640.30;1382.40;;;;;;5050438;28;20041;-58
2022/04/29 07:47:43;;;;;;;3.67;2.78;;;614.50;1484.80;;;;;;5050574;28;20032;-64
2022/04/29 07:50:10;;;;;;;5.10;2.70;;;588.80;1561.60;;;;;;5050498;28;20455;-64
2022/04/29 07:52:36;;;;;;;3.92;2.90;;;563.40;1638.40;;;;;;5050136;28;20051;-59
2022/04/29 07:55:01;;;;;;;5.05;3.17;;;563.30;1664.00;;;;;;5050393;28;20534;-57
2022/04/29 07:57:27;;;;;;;5.07;2.63;;;563.60;1638.40;;;;;;5049905;28;20471;-65
2022/04/29 07:59:53;;;;;;;5.05;2.85;;;563.40;1664.00;;;;;;5050307;28;20586;-59
2022/04/29 08:02:19;;;;;;;5.20;2.95;;;538.40;1664.00;;;;;;5050308;28;20558;-63
2022/04/29 08:04:44;;;;;;;4.43;2.72;;;537.90;1715.20;;;;;;5050071;28;20029;-58
2022/04/29 08:07:13;;;;;;;4.38;3.05;;;563.30;1689.60;;;;;;5049862;28;20115;-62
2022/04/29 08:09:38;;;;;;;7.35;4.05;;;563.40;1664.00;;;;;;5044118;28;20502;-63
2022/04/29 08:12:05;;;;;;;4.32;3.60;;;614.40;1587.20;;;;;;5031653;28;20065;-64
2022/04/29 08:14:31;;;;;;;5.78;4.53;;;691.70;1356.80;;;;;;5030034;28;20025;-63
2022/04/29 08:16:57;;;;;;;8.52;5.65;;;691.30;1382.40;;;;;;5029741;28;20087;-57
2022/04/29 08:19:23;;;;;;;7.38;4.78;;;717.30;1280.00;;;;;;5030051;28;20052;-65
2022/04/29 08:21:50;;;;;;;4.90;3.05;;;666.10;1356.80;;;;;;5029946;28;20032;-56
2022/04/29 08:24:16;;;;;;;6.80;3.13;;;640.40;1408.00;;;;;;5029625;28;20030;-65
2022/04/29 08:26:41;;;;;;;5.88;3.63;;;615.10;1433.60;;;;;;5029437;28;20041;-59
2022/04/29 08:29:08;;;;;;;4.28;2.88;;;589.20;1561.60;;;;;;5029762;28;20049;-57
2022/04/29 08:31:34;;;;;;;4.47;2.90;;;589.00;1587.20;;;;;;5029499;28;20021;-56
2022/04/29 08:34:00;;;;;;;3.47;2.55;;;564.00;1638.40;;;;;;5039919;28;20040;-56
2022/04/29 08:36:26;;;;;;;2.88;2.00;;;563.90;1638.40;;;;;;5034488;28;20038;-56
2022/04/29 08:38:52;;;;;;;7.13;4.47;;;564.00;1638.40;;;;;;5030037;28;20067;-59
2022/04/29 08:41:21;;;;;;;4.03;2.85;;;589.00;1612.80;;;;;;5032066;28;20055;-63
2022/04/29 08:43:48;;;;;;;5.15;2.60;;;589.20;1561.60;;;;;;5049489;28;20032;-55
2022/04/29 08:46:14;;;;;;;4.93;2.90;;;589.40;1510.40;;;;;;5035301;28;20029;-60
2022/04/29 08:48:43;;;;;;;3.33;2.45;;;589.50;1536.00;;;;;;5048034;28;20116;-55
2022/04/29 08:51:09;;;;;;;4.50;2.67;;;589.60;1459.20;;;;;;5049425;28;20048;-60
2022/04/29 08:53:36;;;;;;;4.40;2.80;;;589.40;1510.40;;;;;;5049356;28;20021;-57
2022/04/29 08:58:50;;;;;;;4.80;3.03;;;589.30;1536.00;;;;;;5049510;28;20063;-59
2022/04/29 09:01:16;;;;;;;3.42;2.15;;;589.10;1510.40;;;;;;5049382;28;20364;-63
2022/04/29 09:03:44;;;;;;;4.32;2.42;;;563.80;1587.20;;;;;;5049491;28;20480;-72
2022/04/29 09:06:10;;;;;;;3.70;2.42;;;589.20;1536.00;;;;;;5049388;28;20123;-62
2022/04/29 09:08:40;;;;;;;3.55;2.50;;;589.10;1536.00;;;;;;5049282;28;20071;-57
2022/04/29 09:11:07;;;;;;;4.30;2.42;;;564.10;1561.60;;;;;;5049315;28;20140;-61
2022/04/29 09:13:40;;;;;;;3.20;2.08;;;564.00;1561.60;;;;;;5049443;28;20055;-60
2022/04/29 09:16:12;;;;;;;4.85;2.70;;;563.80;1612.80;;;;;;5049541;28;20029;-65
2022/04/29 09:18:41;;;;;;;4.45;2.95;;;563.60;1587.20;;;;;;5049158;28;20387;-60
2022/04/29 09:21:17;;;;;;;5.60;2.80;;;538.50;1587.20;;;;;;5049202;28;20021;-65
2022/04/29 09:23:44;;;;;;;4.20;2.47;;;538.20;1612.80;;;;;;5049389;28;20025;-61
2022/04/29 09:26:35;;;;;;;5.13;3.25;;;537.90;1612.80;;;;;;5049353;28;20033;-64
2022/04/29 09:29:15;;;;;;;4.82;3.45;;;537.70;1612.80;;;;;;5049385;28;20029;-63
2022/04/29 09:31:54;;;;;;;4.65;3.03;;;537.60;1612.80;;;;;;5049435;28;20099;-67
2022/04/29 09:34:21;;;;;;;23.85;10.40;;;537.80;1587.20;;;;;;5049349;28;20067;-56
2022/04/29 09:36:48;;;;;;;28.65;13.77;;;537.90;1587.20;;;;;;5031284;28;20033;-56
2022/04/29 09:39:27;;;;;;;21.70;8.85;;;538.00;1561.60;;;;;;5052190;28;20152;-59
2022/04/29 09:42:05;;;;;;;9.60;4.40;;;538.50;1587.20;;;;;;5052651;28;20025;-60
2022/04/29 09:44:32;;;;;;;5.50;3.35;;;563.30;1536.00;;;;;;5052774;28;20044;-61
2022/04/29 09:47:12;;;;;;;5.57;3.20;;;538.50;1536.00;;;;;;5052526;28;20032;-58
2022/04/29 09:49:39;;;;;;;4.72;3.00;;;538.50;1510.40;;;;;;5052491;28;20033;-58
2022/04/29 09:52:05;;;;;;;4.10;2.45;;;537.80;1536.00;;;;;;5052436;28;20067;-57
2022/04/29 09:54:37;;;;;;;6.00;2.55;;;538.00;1536.00;;;;;;5052506;28;20025;-57
2022/04/29 09:57:14;;;;;;;5.32;3.15;;;537.90;1561.60;;;;;;5052674;28;20427;-62
2022/04/29 09:59:49;;;;;;;5.93;4.55;;;512.30;1587.20;;;;;;5052743;28;20021;-61
2022/04/29 10:02:19;;;;;;;5.00;3.47;;;512.60;1536.00;;;;;;5052258;28;20108;-57
2022/04/29 10:04:46;;;;;;;5.13;2.85;;;512.50;1561.60;;;;;;5052255;28;20108;-62
2022/04/29 10:07:18;;;;;;;4.05;2.70;;;487.10;1638.40;;;;;;5052131;28;20052;-57
2022/04/29 10:09:47;;;;;;;4.68;3.60;;;487.30;1612.80;;;;;;5052169;28;20128;-59
2022/04/29 10:12:18;;;;;;;5.03;3.05;;;512.40;1587.20;;;;;;5052168;28;20100;-57
2022/04/29 10:14:45;;;;;;;8.52;4.70;;;512.50;1612.80;;;;;;5052078;28;20013;-59
2022/04/29 10:23:02;;;;;;;5.30;2.92;;;538.40;1561.60;;;;;;5052156;28;20088;-57
2022/04/29 10:25:29;;;;;;;3.33;2.25;;;538.20;1561.60;;;;;;5051794;28;20056;-57
2022/04/29 10:27:55;;;;;;;6.25;4.13;;;537.90;1561.60;;;;;;5051777;28;20029;-62
2022/04/29 10:30:27;;;;;;;5.55;3.38;;;537.70;1587.20;;;;;;5052005;28;20064;-58
2022/04/29 10:33:04;;;;;;;6.03;4.13;;;537.60;1612.80;;;;;;5051874;28;20025;-60
2022/04/29 10:35:39;;;;;;;9.18;5.25;;;537.80;1612.80;;;;;;5051522;28;20024;-63
2022/04/29 10:38:26;;;;;;;9.35;5.30;;;512.90;1638.40;;;;;;5051443;28;20368;-57
2022/04/29 10:41:07;;;;;;;15.63;6.38;;;512.80;1638.40;;;;;;5033740;28;20025;-64
2022/04/29 10:43:53;;;;;;;5.90;3.30;;;512.60;1638.40;;;;;;5051621;28;20105;-58
2022/04/29 10:46:21;;;;;;;7.55;4.53;;;512.40;1664.00;;;;;;4970521;28;20500;-61
2022/04/29 10:48:56;;;;;;;14.48;9.55;;;512.20;1664.00;;;;;;4970630;28;20101;-61
2022/04/29 10:51:28;;;;;;;5.53;4.68;;;512.40;1638.40;;;;;;4970688;28;20505;-61
2022/04/29 10:53:55;;;;;;;8.98;6.68;;;512.30;1638.40;;;;;;4970736;28;20479;-58
2022/04/29 10:56:32;;;;;;;9.05;6.95;;;512.40;1612.80;;;;;;4990040;28;20509;-58
2022/04/29 10:59:04;;;;;;;4.38;3.00;;;512.40;1612.80;;;;;;4989808;28;20027;-61
2022/04/29 11:01:33;;;;;;;4.45;2.70;;;512.20;1638.40;;;;;;4989709;28;20023;-64
2022/04/29 11:04:00;;;;;;;5.50;3.80;;;512.00;1638.40;;;;;;4989624;28;20041;-64
2022/04/29 11:06:41;;;;;;;6.55;2.90;;;512.20;1715.20;;;;;;4986429;28;20034;-64
2022/04/29 11:09:44;;;;;;;6.05;3.22;;;512.20;1689.60;;;;;;4989781;28;20109;-60
2022/04/29 11:12:51;;;;;;;11.40;8.18;;;512.20;1689.60;;;;;;4983538;28;20041;-58
2022/04/29 11:15:20;;;;;;;3.92;2.72;;;512.20;1664.00;;;;;;4984244;28;20133;-63
2022/04/29 11:17:46;;;;;;;4.93;3.67;;;512.20;1664.00;;;;;;4989324;28;20050;-64
2022/04/29 11:20:23;;;;;;;6.13;3.60;;;512.00;1689.60;;;;;;4989752;28;20142;-67
2022/04/29 11:25:52;;;;;;;5.63;3.33;;;512.30;1664.00;;;;;;5050615;28;20063;-64
2022/04/29 11:28:19;;;;;;;6.53;4.57;;;512.50;1612.80;;;;;;5050527;28;20033;-66
2022/04/29 11:30:46;;;;;;;4.43;2.95;;;512.70;1612.80;;;;;;5050592;28;20490;-71
2022/04/29 11:33:12;;;;;;;5.57;3.50;;;512.80;1587.20;;;;;;5049132;28;20068;-61
2022/04/29 11:35:38;;;;;;;4.15;3.13;;;537.60;1587.20;;;;;;5048775;28;20021;-65
2022/04/29 11:38:05;;;;;;;2.97;2.30;;;537.90;1587.20;;;;;;5048864;28;20048;-56
2022/04/29 11:40:36;;;;;;;7.40;5.57;;;538.00;1561.60;;;;;;5048989;28;20056;-59
2022/04/29 11:43:07;;;;;;;4.57;2.88;;;538.20;1561.60;;;;;;5049277;28;20040;-65
2022/04/29 11:45:35;;;;;;;4.25;2.60;;;538.10;1587.20;;;;;;5048515;28;20079;-57
2022/04/29 11:48:06;;;;;;;9.00;5.63;;;538.30;1587.20;;;;;;5048801;28;20107;-57
2022/04/29 11:50:33;;;;;;;8.57;6.15;;;538.40;1587.20;;;;;;5048908;28;20040;-61
2022/04/29 11:53:10;;;;;;;14.88;10.40;;;538.40;1587.20;;;;;;5051004;28;20059;-62
2022/04/29 11:55:37;;;;;;;6.45;3.28;;;538.20;1561.60;;;;;;5050141;28;20057;-63
2022/04/29 11:58:03;;;;;;;5.50;3.95;;;537.90;1587.20;;;;;;5050351;28;20017;-59
2022/04/29 12:00:32;;;;;;;4.53;3.10;;;537.60;1612.80;;;;;;5049765;28;20028;-64
2022/04/29 12:02:59;;;;;;;4.80;2.85;;;512.90;1638.40;;;;;;5049981;28;20383;-64
2022/04/29 12:05:27;;;;;;;6.80;4.72;;;537.60;1638.40;;;;;;5049725;28;20415;-55
2022/04/29 12:07:54;;;;;;;4.63;3.25;;;512.90;1664.00;;;;;;5049869;28;20053;-64
2022/04/29 12:10:20;;;;;;;6.28;3.45;;;537.70;1638.40;;;;;;5050166;28;20025;-56
2022/04/29 12:12:48;;;;;;;5.00;3.40;;;537.70;1638.40;;;;;;5049863;28;20120;-60
2022/04/29 12:15:24;;;;;;;6.80;4.60;;;538.00;1638.40;;;;;;5049918;28;20021;-56
2022/04/29 12:17:49;;;;;;;5.90;3.42;;;538.20;1612.80;;;;;;5049945;28;20551;-60
2022/04/29 12:20:19;;;;;;;5.93;4.13;;;538.00;1638.40;;;;;;5049723;28;20116;-56
2022/04/29 12:22:50;;;;;;;6.25;4.22;;;538.10;1612.80;;;;;;5049897;28;20391;-57
2022/04/29 12:25:34;;;;;;;6.72;4.15;;;537.80;1664.00;;;;;;5049844;28;20052;-57
2022/04/29 12:28:09;;;;;;;6.93;4.47;;;537.70;1638.40;;;;;;5047186;28;20029;-56
2022/04/29 12:36:13;;;;;;;4.45;3.50;;;512.00;1664.00;;;;;;5048002;28;20557;-59
2022/04/29 12:38:41;;;;;;;6.28;4.68;;;487.00;1740.80;;;;;;5048827;28;20025;-56
2022/04/29 12:41:36;;;;;;;4.65;3.15;;;486.50;1817.60;;;;;;5049880;28;20033;-63
2022/04/29 12:44:09;;;;;;;7.18;5.00;;;461.30;1920.00;;;;;;4968988;28;20059;-64
2022/04/29 12:46:35;;;;;;;8.70;5.22;;;461.10;1971.20;;;;;;4968607;28;20062;-59
2022/04/29 12:49:02;;;;;;;5.57;3.90;;;461.00;2022.40;;;;;;4988321;28;20035;-57
2022/04/29 12:51:34;;;;;;;7.82;5.70;;;460.80;2048.00;;;;;;4988099;28;20481;-63